Time;durP1;ratioP1;P1;durP2;ratioP2;P2;SDS_P1;SDS_P2;PMS_P1;PMS_P2;Temp;Humidity;BMP_temperature;BMP_pressure;BME280_temperature;BME280_humidity;BME280_pressure;Samples;Min_cycle;Max_cycle;Signal;HPM_P1;HPM_P2
2023/02/05 00:02:16;;;;;;;;;1.00;1.00;;;;;21.16;47.16;103926.78;5076242;28;45514;-76
2023/02/05 00:04:41;;;;;;;;;2.00;2.00;;;;;21.27;47.20;103947.28;5075868;28;45325;-75
2023/02/05 00:07:07;;;;;;;;;2.00;2.00;;;;;21.24;47.23;103930.72;5075919;28;45581;-76
2023/02/05 00:09:32;;;;;;;;;3.00;1.33;;;;;21.28;47.02;103930.47;5074735;28;47022;-71
2023/02/05 00:11:58;;;;;;;;;0.67;0.67;;;;;21.24;47.12;103920.13;5075923;27;45365;-78
2023/02/05 00:14:24;;;;;;;;;1.00;1.00;;;;;21.34;46.93;103928.34;5070057;28;45486;-75
2023/02/05 00:16:51;;;;;;;;;2.00;1.00;;;;;21.36;46.69;103926.44;5074397;28;45308;-75
2023/02/05 00:19:17;;;;;;;;;1.00;1.00;;;;;21.26;46.65;103908.50;5075276;27;45337;-74
2023/02/05 00:21:43;;;;;;;;;1.00;1.00;;;;;21.32;46.80;103912.56;5075781;28;45460;-75
2023/02/05 00:24:09;;;;;;;;;1.00;1.00;;;;;21.37;46.62;103915.75;5075280;28;45295;-75
2023/02/05 00:26:34;;;;;;;;;2.00;2.00;;;;;21.39;46.26;103926.25;5075800;28;45335;-75
2023/02/05 00:28:59;;;;;;;;;0.33;0.00;;;;;21.37;46.21;103915.75;5075877;28;46391;-75
2023/02/05 00:31:25;;;;;;;;;1.67;1.67;;;;;21.25;46.10;103895.38;5075658;28;45338;-75
2023/02/05 00:33:51;;;;;;;;;1.00;1.00;;;;;21.29;45.90;103899.50;5075860;28;45302;-75
2023/02/05 00:36:18;;;;;;;;;1.00;1.00;;;;;21.42;46.52;103915.44;5075858;28;45289;-75
2023/02/05 00:38:44;;;;;;;;;0.00;0.00;;;;;21.43;45.88;103906.56;5075232;27;45348;-75
2023/02/05 00:41:11;;;;;;;;;1.67;1.67;;;;;21.25;46.19;103885.63;5075517;28;45295;-75
2023/02/05 00:43:37;;;;;;;;;1.00;1.00;;;;;21.40;45.82;103904.09;5057497;28;45303;-74
2023/02/05 00:46:03;;;;;;;;;1.00;1.00;;;;;21.40;45.68;103901.44;5075489;27;45361;-75
2023/02/05 00:48:29;;;;;;;;;3.00;1.00;;;;;21.34;45.98;103888.63;5075204;28;46270;-75
2023/02/05 00:50:54;;;;;;;;;1.00;1.00;;;;;21.29;45.75;103881.81;5075600;27;45498;-74
2023/02/05 00:53:20;;;;;;;;;1.67;1.67;;;;;21.41;46.09;103897.88;5075253;28;45336;-75
2023/02/05 00:55:46;;;;;;;;;1.33;1.33;;;;;21.35;46.06;103885.00;5075559;27;45448;-76
2023/02/05 00:58:11;;;;;;;;;3.00;1.67;;;;;21.41;45.97;103900.50;5075166;27;45392;-74
2023/02/05 01:00:38;;;;;;;;;2.00;2.00;;;;;21.42;46.21;103901.38;5075389;28;45364;-75
2023/02/05 01:03:03;;;;;;;;;2.00;1.00;;;;;21.28;45.55;103872.19;5075517;28;45368;-74
2023/02/05 01:05:31;;;;;;;;;1.67;1.67;;;;;21.40;45.42;103898.81;5075216;27;45338;-74
2023/02/05 01:07:57;;;;;;;;;2.33;1.00;;;;;21.39;45.91;103892.66;5075014;28;45356;-75
2023/02/05 01:10:22;;;;;;;;;3.33;2.00;;;;;21.27;45.48;103862.53;5075066;28;45357;-75
2023/02/05 01:12:48;;;;;;;;;2.33;2.33;;;;;21.39;45.42;103884.69;5075380;28;45407;-75
2023/02/05 01:15:14;;;;;;;;;2.00;2.00;;;;;21.37;45.34;103891.06;5075343;27;45472;-74
2023/02/05 01:17:39;;;;;;;;;2.00;2.00;;;;;21.35;45.79;103888.53;5075027;28;46137;-75
2023/02/05 01:20:05;;;;;;;;;3.00;2.00;;;;;21.37;45.71;103880.47;5075169;28;45728;-75
2023/02/05 01:22:31;;;;;;;;;3.00;2.33;;;;;21.17;45.50;103854.34;5074947;28;45297;-74
2023/02/05 01:24:57;;;;;;;;;2.00;1.00;;;;;21.35;45.12;103874.41;5075115;28;45352;-75
2023/02/05 01:27:23;;;;;;;;;3.00;2.33;;;;;21.35;45.17;103869.13;5075019;28;46296;-73
2023/02/05 01:29:49;;;;;;;;;1.33;1.33;;;;;21.37;45.57;103864.56;5076937;27;45393;-75
2023/02/05 01:32:14;;;;;;;;;2.33;2.33;;;;;21.31;45.12;103849.09;5078476;27;45348;-75
2023/02/05 01:34:40;;;;;;;;;1.33;1.00;;;;;21.31;45.54;103852.59;5078526;27;45348;-75
2023/02/05 01:37:05;;;;;;;;;1.00;1.00;;;;;21.29;45.19;103841.25;5078028;27;45307;-74
2023/02/05 01:39:31;;;;;;;;;4.00;2.00;;;;;21.29;45.18;103852.69;5060108;28;45363;-75
2023/02/05 01:41:56;;;;;;;;;2.00;2.00;;;;;21.37;45.43;103867.22;5078491;27;45402;-75
2023/02/05 01:44:25;;;;;;;;;4.00;2.67;;;;;21.38;45.54;103876.88;5078453;27;45356;-75
2023/02/05 01:46:53;;;;;;;;;5.67;3.00;;;;;21.37;45.50;103872.50;5077752;27;46445;-75
2023/02/05 01:49:34;;;;;;;;;2.00;2.00;;;;;21.24;45.13;103854.78;5078160;28;45480;-75
2023/02/05 01:52:05;;;;;;;;;2.33;2.33;;;;;21.34;45.58;103880.69;5078038;27;45451;-74
2023/02/05 01:54:34;;;;;;;;;3.33;3.33;;;;;21.36;45.57;103892.88;5078264;28;45447;-75
2023/02/05 01:57:08;;;;;;;;;4.00;2.00;;;;;21.36;45.65;103886.72;5078039;28;46437;-74
2023/02/05 01:59:38;;;;;;;;;4.00;4.00;;;;;21.36;45.06;103892.88;5078045;27;45523;-75
2023/02/05 02:02:06;;;;;;;;;6.00;2.33;;;;;21.27;45.25;103880.22;5078238;27;45374;-76
2023/02/05 02:04:41;;;;;;;;;3.67;1.33;;;;;21.32;45.41;103888.72;5077830;28;45448;-75
2023/02/05 02:07:11;;;;;;;;;4.00;2.00;;;;;21.01;45.52;103835.09;5077681;27;46809;-75
2023/02/05 02:09:39;;;;;;;;;5.33;1.33;;;;;21.36;45.06;103889.38;5077681;27;45543;-75
2023/02/05 02:12:05;;;;;;;;;3.00;3.00;;;;;21.32;45.16;103882.56;5077966;27;45438;-76
2023/02/05 02:14:32;;;;;;;;;5.33;4.00;;;;;21.35;45.50;103885.00;5077855;28;45419;-75
2023/02/05 02:17:01;;;;;;;;;4.00;3.00;;;;;21.35;45.54;103890.31;5077714;28;46432;-75
2023/02/05 02:19:50;;;;;;;;;1.33;1.33;;;;;21.34;45.26;103896.56;5077267;27;45312;-73
2023/02/05 02:22:52;;;;;;;;;2.67;2.67;;;;;21.34;45.17;103899.22;5077806;27;45344;-74
2023/02/05 02:25:29;;;;;;;;;4.33;2.00;;;;;21.33;45.05;103908.09;5077614;28;45403;-75
2023/02/05 02:28:15;;;;;;;;;2.00;2.00;;;;;21.24;45.47;103899.81;5077458;27;46923;-75
2023/02/05 02:30:56;;;;;;;;;3.67;2.00;;;;;21.32;45.43;103906.41;5077574;28;45309;-75
2023/02/05 02:33:24;;;;;;;;;3.00;1.00;;;;;21.31;45.41;103908.22;5077582;28;45424;-74
2023/02/05 02:36:16;;;;;;;;;3.67;1.00;;;;;21.28;45.42;103898.69;5077236;27;45379;-75
2023/02/05 02:38:53;;;;;;;;;3.00;2.00;;;;;21.31;45.41;103902.91;5077282;27;46987;-75
2023/02/05 02:41:35;;;;;;;;;2.67;2.67;;;;;21.31;45.11;103899.41;5077201;27;45432;-75
2023/02/05 02:44:13;;;;;;;;;1.33;1.33;;;;;21.29;45.22;103887.13;5077480;27;45403;-75
2023/02/05 02:46:44;;;;;;;;;2.00;2.00;;;;;21.18;44.93;103868.44;5058907;28;45387;-74
2023/02/05 02:49:15;;;;;;;;;2.00;2.00;;;;;21.25;45.47;103874.19;5076649;28;45315;-74
2023/02/05 02:51:42;;;;;;;;;3.00;3.00;;;;;21.29;45.45;103891.56;5077223;27;45306;-75
2023/02/05 02:54:14;;;;;;;;;3.00;2.33;;;;;21.28;45.30;103896.03;5077235;28;45305;-75
2023/02/05 02:56:40;;;;;;;;;2.00;2.00;;;;;21.20;45.08;103877.13;5077238;27;45419;-75
2023/02/05 02:59:17;;;;;;;;;2.00;2.00;;;;;21.28;44.98;103879.28;5077124;27;45862;-75
2023/02/05 03:01:48;;;;;;;;;3.00;2.00;;;;;21.18;45.34;103871.94;5077076;28;45414;-75
2023/02/05 03:04:21;;;;;;;;;0.25;0.25;;;;;21.27;45.28;103889.03;5076625;28;45504;-75
2023/02/05 03:06:51;;;;;;;;;2.00;2.00;;;;;21.20;44.70;103876.28;5076901;28;45332;-74
2023/02/05 03:09:32;;;;;;;;;2.33;2.00;;;;;21.22;45.11;103880.53;5076889;27;46323;-75
2023/02/05 03:11:57;;;;;;;;;2.67;2.00;;;;;21.25;45.02;103882.97;5076937;28;45366;-75
2023/02/05 03:14:23;;;;;;;;;3.00;2.00;;;;;20.90;44.56;103819.91;5076975;28;45304;-75
2023/02/05 03:16:50;;;;;;;;;2.33;2.00;;;;;21.25;44.93;103887.44;5076854;27;45326;-75
2023/02/05 03:19:15;;;;;;;;;2.00;2.00;;;;;21.23;45.04;103884.03;5076478;28;46125;-75
2023/02/05 03:21:46;;;;;;;;;2.00;2.00;;;;;21.25;44.85;103892.72;5076530;27;45307;-75
2023/02/05 03:24:12;;;;;;;;;1.67;1.67;;;;;21.14;45.15;103872.22;5076952;28;45323;-75
2023/02/05 03:26:38;;;;;;;;;2.67;2.67;;;;;21.23;44.96;103889.31;5076670;28;45473;-75
2023/02/05 03:29:17;;;;;;;;;2.00;0.67;;;;;21.23;44.93;103891.97;5076551;28;47024;-74
2023/02/05 03:31:56;;;;;;;;;1.00;1.00;;;;;21.23;45.18;103889.31;5076435;27;45290;-74
2023/02/05 03:34:39;;;;;;;;;4.00;2.00;;;;;21.23;44.96;103897.28;5076592;28;45363;-75
2023/02/05 03:37:26;;;;;;;;;1.00;1.00;;;;;21.21;44.85;103889.41;5076577;27;45400;-75
2023/02/05 03:40:13;;;;;;;;;2.00;1.67;;;;;21.22;44.81;103884.97;5076336;28;46146;-75
2023/02/05 03:42:44;;;;;;;;;1.00;1.00;;;;;21.21;45.17;103881.47;5076483;27;45474;-74
2023/02/05 03:45:22;;;;;;;;;4.00;1.67;;;;;21.20;44.59;103881.56;5076435;27;45469;-75
2023/02/05 03:48:06;;;;;;;;;2.33;2.33;;;;;21.21;45.30;103881.47;5075853;27;45595;-75
2023/02/05 03:50:40;;;;;;;;;3.00;1.00;;;;;21.18;45.03;103882.50;5076110;27;47088;-75
2023/02/05 03:53:16;;;;;;;;;1.33;1.33;;;;;21.18;44.97;103882.50;5075739;28;45257;-75
2023/02/05 03:55:47;;;;;;;;;2.00;2.00;;;;;21.21;44.74;103875.34;5076307;28;45355;-75
2023/02/05 03:58:37;;;;;;;;;1.67;1.67;;;;;21.21;44.53;103870.88;5076220;28;45579;-75
2023/02/05 04:01:03;;;;;;;;;2.67;1.33;;;;;21.18;44.65;103868.44;5075008;27;45347;-75
2023/02/05 04:03:29;;;;;;;;;1.00;1.00;;;;;21.18;45.16;103868.44;5075936;28;45359;-73
2023/02/05 04:05:55;;;;;;;;;2.00;2.00;;;;;21.19;44.64;103878.06;5075936;28;45565;-75
2023/02/05 04:08:20;;;;;;;;;2.00;2.00;;;;;21.19;44.57;103888.66;5076258;28;45340;-74
2023/02/05 04:10:46;;;;;;;;;2.00;2.00;;;;;21.16;44.46;103881.78;5075765;28;47066;-75
2023/02/05 04:13:11;;;;;;;;;2.00;2.00;;;;;21.15;44.96;103876.59;5076105;28;45301;-75
2023/02/05 04:15:36;;;;;;;;;1.00;1.00;;;;;21.15;44.70;103872.16;5075874;28;45341;-75
2023/02/05 04:18:02;;;;;;;;;2.00;1.33;;;;;21.13;45.15;103878.50;5076137;27;45365;-75
2023/02/05 04:20:27;;;;;;;;;1.33;0.00;;;;;21.17;44.84;103883.47;5075732;28;46059;-74
2023/02/05 04:22:52;;;;;;;;;2.00;2.00;;;;;20.67;45.19;103806.38;5057715;28;45413;-75
2023/02/05 04:25:19;;;;;;;;;2.00;2.00;;;;;21.17;44.88;103894.06;5076129;27;45502;-74
2023/02/05 04:27:44;;;;;;;;;2.00;2.00;;;;;21.16;44.61;103891.50;5075940;28;45563;-75
2023/02/05 04:30:10;;;;;;;;;2.67;2.67;;;;;21.17;44.72;103893.22;5056992;28;47711;-74
2023/02/05 04:32:36;;;;;;;;;2.00;2.00;;;;;21.12;44.44;103895.31;5075827;27;45317;-74
2023/02/05 04:35:01;;;;;;;;;3.33;1.33;;;;;21.13;44.98;103895.22;5075722;28;45351;-75
2023/02/05 04:37:26;;;;;;;;;2.00;2.00;;;;;21.16;44.45;103894.16;5075860;27;45408;-74
2023/02/05 04:39:52;;;;;;;;;3.75;2.00;;;;;21.11;44.43;103883.00;5075532;28;46339;-75
2023/02/05 04:42:17;;;;;;;;;2.33;2.00;;;;;21.16;44.97;103891.50;5057524;28;45361;-74
2023/02/05 04:44:42;;;;;;;;;3.33;2.00;;;;;21.13;44.72;103889.09;5075351;28;45686;-74
2023/02/05 04:47:08;;;;;;;;;1.33;1.33;;;;;21.15;44.46;103895.13;5075309;27;45407;-75
2023/02/05 04:49:33;;;;;;;;;2.00;2.00;;;;;21.15;44.70;103911.88;5075527;28;46241;-75
2023/02/05 04:51:59;;;;;;;;;1.00;1.00;;;;;21.14;44.90;103918.09;5075727;27;45329;-74
2023/02/05 04:54:24;;;;;;;;;2.00;1.00;;;;;21.14;44.44;103915.44;5057507;28;45410;-75
2023/02/05 04:56:49;;;;;;;;;1.33;1.33;;;;;21.14;44.32;103917.25;5075480;28;45436;-75
2023/02/05 04:59:15;;;;;;;;;2.00;2.00;;;;;21.14;44.40;103930.47;5074954;28;47039;-75
2023/02/05 05:01:40;;;;;;;;;2.33;1.00;;;;;21.05;44.78;103921.34;5075435;27;45409;-74
2023/02/05 05:04:06;;;;;;;;;2.33;1.67;;;;;21.14;44.92;103943.72;5076314;28;45444;-74
2023/02/05 05:06:31;;;;;;;;;1.00;1.00;;;;;21.09;44.49;103928.13;5079017;28;45274;-74
2023/02/05 05:08:56;;;;;;;;;1.67;1.67;;;;;21.12;44.31;103935.03;5078906;28;46808;-75
2023/02/05 05:11:22;;;;;;;;;1.00;1.00;;;;;21.14;44.48;103930.47;5078736;28;45278;-74
2023/02/05 05:13:48;;;;;;;;;2.33;1.00;;;;;20.83;44.69;103885.63;5078698;27;45363;-75
2023/02/05 05:16:14;;;;;;;;;1.33;1.00;;;;;21.04;44.47;103919.63;5078885;27;45233;-75
2023/02/05 05:18:40;;;;;;;;;3.67;2.00;;;;;21.15;44.54;103937.50;5078672;28;45480;-74
2023/02/05 05:21:06;;;;;;;;;2.00;2.00;;;;;21.15;44.52;103937.50;5078714;28;45354;-75
2023/02/05 05:23:32;;;;;;;;;2.67;1.67;;;;;21.15;44.28;103937.50;5078553;27;45282;-74
2023/02/05 05:25:58;;;;;;;;;2.33;1.00;;;;;21.15;44.46;103934.84;5078740;27;45376;-75
2023/02/05 05:28:24;;;;;;;;;1.00;1.00;;;;;21.03;44.70;103909.97;5078116;28;45395;-74
2023/02/05 05:30:49;;;;;;;;;1.67;1.67;;;;;21.04;44.76;103917.84;5078500;27;45400;-75
2023/02/05 05:33:14;;;;;;;;;1.67;1.67;;;;;21.01;44.72;103907.44;5078743;28;45347;-75
2023/02/05 05:35:40;;;;;;;;;2.33;1.00;;;;;21.14;44.21;103935.78;5078570;27;45379;-74
2023/02/05 05:38:05;;;;;;;;;3.00;1.00;;;;;21.11;44.25;103931.53;5078419;27;45794;-74
2023/02/05 05:46:02;;;;;;;;;2.00;2.00;;;;;20.94;44.82;103908.75;5078010;28;45412;-75
2023/02/05 05:48:28;;;;;;;;;3.00;1.00;;;;;21.06;44.65;103929.19;5077985;27;45531;-74
2023/02/05 05:50:53;;;;;;;;;2.00;2.00;;;;;21.06;44.22;103926.53;5077963;27;45332;-74
2023/02/05 05:53:19;;;;;;;;;3.00;1.33;;;;;21.04;44.37;103917.84;5078522;27;45352;-75
2023/02/05 05:55:44;;;;;;;;;1.00;1.00;;;;;21.03;44.23;103910.84;5078329;27;45379;-75
2023/02/05 05:58:10;;;;;;;;;5.00;2.00;;;;;21.12;44.53;103933.25;5059160;27;46262;-75
2023/02/05 06:00:36;;;;;;;;;3.00;2.67;;;;;21.09;44.31;103933.44;5078081;28;45303;-75
2023/02/05 06:03:03;;;;;;;;;2.33;1.00;;;;;21.11;44.66;103935.97;5078151;27;45372;-75
2023/02/05 06:05:29;;;;;;;;;3.00;3.00;;;;;20.99;44.86;103922.56;5077567;28;45434;-75
2023/02/05 06:07:54;;;;;;;;;3.00;3.00;;;;;21.12;44.34;103935.03;5077819;28;46050;-75
2023/02/05 06:10:20;;;;;;;;;0.75;0.75;;;;;21.11;44.30;103933.31;5077806;27;45464;-74
2023/02/05 06:12:45;;;;;;;;;3.25;2.00;;;;;21.11;44.57;103928.03;5077550;27;45395;-75
2023/02/05 06:15:10;;;;;;;;;1.00;1.00;;;;;21.11;44.37;103933.31;5077620;28;45337;-75
2023/02/05 06:17:36;;;;;;;;;2.67;1.33;;;;;21.04;44.65;103919.63;5077729;27;47122;-74
2023/02/05 06:20:01;;;;;;;;;1.00;1.00;;;;;21.06;44.27;103930.97;5077871;27;45399;-74
2023/02/05 06:22:26;;;;;;;;;2.00;2.00;;;;;21.11;44.27;103941.25;5077966;28;45280;-74
2023/02/05 06:24:52;;;;;;;;;1.67;1.67;;;;;21.05;44.32;103932.75;5077881;27;45289;-74
2023/02/05 06:27:17;;;;;;;;;2.00;2.00;;;;;21.01;44.06;103925.09;5077400;27;46905;-73
2023/02/05 06:29:42;;;;;;;;;2.00;2.00;;;;;21.10;44.53;103935.13;5077669;27;45409;-74
2023/02/05 06:32:08;;;;;;;;;2.00;2.00;;;;;21.04;44.44;103927.56;5077780;27;45401;-74
2023/02/05 06:34:33;;;;;;;;;2.67;1.33;;;;;21.10;44.77;103951.03;5077920;27;45280;-74
2023/02/05 06:36:58;;;;;;;;;1.00;1.00;;;;;21.10;44.19;103951.03;5077411;28;46091;-74
2023/02/05 06:39:24;;;;;;;;;3.00;1.00;;;;;21.01;44.22;103943.63;5077491;28;45396;-75
2023/02/05 06:41:49;;;;;;;;;1.67;1.67;;;;;21.05;44.38;103947.81;5077600;27;45222;-74
2023/02/05 06:44:14;;;;;;;;;2.00;2.00;;;;;21.02;44.58;103951.50;5077582;28;45263;-74
2023/02/05 06:46:40;;;;;;;;;1.00;1.00;;;;;21.11;44.58;103957.16;5077141;28;45297;-74
2023/02/05 06:49:05;;;;;;;;;2.00;2.00;;;;;21.11;44.17;103957.16;5073373;27;47715;-74
2023/02/05 06:51:30;;;;;;;;;2.00;1.00;;;;;20.99;44.21;103930.50;5077360;28;45261;-74
2023/02/05 06:53:56;;;;;;;;;1.67;1.00;;;;;21.11;44.24;103941.25;5077371;27;45356;-74
2023/02/05 06:56:23;;;;;;;;;1.00;1.00;;;;;21.09;44.23;103954.59;5076804;28;46268;-75
2023/02/05 06:58:48;;;;;;;;;2.00;2.00;;;;;21.12;44.62;103950.91;5077111;28;45301;-74
2023/02/05 07:01:14;;;;;;;;;1.00;1.00;;;;;21.11;44.70;103955.34;5077086;28;45301;-74
2023/02/05 07:03:39;;;;;;;;;2.00;2.00;;;;;21.11;44.63;103965.94;5076995;28;45369;-74
2023/02/05 07:06:05;;;;;;;;;3.33;3.00;;;;;21.11;44.21;103979.19;5076942;28;46252;-74
2023/02/05 07:08:31;;;;;;;;;2.00;1.00;;;;;21.11;44.22;103973.03;5077067;28;45277;-75
2023/02/05 07:10:57;;;;;;;;;4.00;1.00;;;;;20.96;44.36;103950.06;5076410;28;45439;-75
2023/02/05 07:13:22;;;;;;;;;1.67;1.67;;;;;21.09;44.33;103975.78;5076949;28;45281;-74
2023/02/05 07:15:48;;;;;;;;;2.33;2.00;;;;;20.99;44.19;103956.97;5076840;28;45481;-74
2023/02/05 07:18:14;;;;;;;;;1.00;0.67;;;;;21.11;44.15;103988.91;5076872;28;45393;-74
2023/02/05 07:20:39;;;;;;;;;2.00;2.00;;;;;21.04;44.47;103970.78;5077096;28;45350;-74
2023/02/05 07:23:04;;;;;;;;;2.00;2.00;;;;;21.08;44.24;103992.59;5076829;28;45424;-75
2023/02/05 07:25:37;;;;;;;;;1.00;1.00;;;;;21.04;44.28;103991.97;5076514;28;46083;-75
2023/02/05 07:28:04;;;;;;;;;2.00;1.00;;;;;21.11;44.14;104010.09;5075606;28;45270;-74
2023/02/05 07:30:30;;;;;;;;;2.33;1.00;;;;;21.10;44.38;104014.56;5076723;28;45273;-74
2023/02/05 07:32:55;;;;;;;;;2.00;2.00;;;;;21.10;44.41;104021.66;5076703;28;45367;-74
2023/02/05 07:35:20;;;;;;;;;1.00;1.00;;;;;21.01;44.33;104018.63;5076608;27;46908;-75
2023/02/05 07:37:46;;;;;;;;;1.67;1.67;;;;;21.09;44.62;104044.63;5076557;27;45375;-74
2023/02/05 07:40:11;;;;;;;;;3.00;2.00;;;;;20.87;44.22;104003.56;5076410;27;45254;-75
2023/02/05 07:42:37;;;;;;;;;2.00;2.00;;;;;21.08;44.35;104042.91;5076672;28;45328;-75
2023/02/05 07:45:02;;;;;;;;;1.33;1.33;;;;;21.00;44.61;104026.66;5076265;28;46372;-75
2023/02/05 07:47:28;;;;;;;;;1.33;1.33;;;;;20.80;44.40;103991.66;5076038;27;45323;-75
2023/02/05 07:49:53;;;;;;;;;2.00;1.00;;;;;21.01;44.49;104029.22;5076464;28;45296;-75
2023/02/05 07:52:18;;;;;;;;;2.00;1.00;;;;;21.06;44.50;104050.09;5076431;28;45300;-75
2023/02/05 07:54:44;;;;;;;;;1.00;1.00;;;;;20.98;44.48;104041.75;5076000;28;45389;-74
2023/02/05 07:57:09;;;;;;;;;1.33;1.33;;;;;21.09;44.27;104059.66;5076432;28;45395;-74
2023/02/05 07:59:34;;;;;;;;;2.00;1.00;;;;;21.05;44.49;104067.78;5076351;28;45356;-74
2023/02/05 08:01:59;;;;;;;;;1.00;1.00;;;;;20.95;44.32;104048.94;5076377;27;45347;-75
2023/02/05 08:04:25;;;;;;;;;1.67;1.67;;;;;21.08;44.07;104077.31;5075862;28;46050;-75
2023/02/05 08:06:50;;;;;;;;;2.00;2.00;;;;;21.09;44.20;104080.84;5075912;28;45241;-73
2023/02/05 08:09:15;;;;;;;;;5.33;2.33;;;;;21.08;44.18;104077.31;5075965;28;45202;-73
2023/02/05 08:11:41;;;;;;;;;0.00;0.00;;;;;20.97;44.31;104064.75;5057979;28;45420;-75
2023/02/05 08:14:07;;;;;;;;;2.00;2.00;;;;;21.08;44.08;104090.56;5076099;28;45422;-74
2023/02/05 08:16:32;;;;;;;;;3.67;2.00;;;;;21.06;44.33;104084.53;5075923;27;45352;-75
2023/02/05 08:18:57;;;;;;;;;2.33;2.00;;;;;21.09;44.27;104099.38;5076027;27;45413;-75
2023/02/05 08:21:23;;;;;;;;;1.00;1.00;;;;;21.00;44.03;104082.25;5076152;28;45294;-75
2023/02/05 08:23:49;;;;;;;;;1.00;1.00;;;;;20.85;44.04;104058.38;5075399;28;46249;-73
2023/02/05 08:26:15;;;;;;;;;1.00;1.00;;;;;21.10;44.39;104111.66;5075840;27;45427;-73
2023/02/05 08:28:41;;;;;;;;;2.00;2.00;;;;;21.00;44.28;104093.66;5075905;28;45407;-76
2023/02/05 08:31:15;;;;;;;;;1.67;1.67;;;;;21.09;44.22;104110.81;5075743;28;45467;-75
2023/02/05 08:33:41;;;;;;;;;2.00;2.00;;;;;21.10;43.95;104119.63;5075698;27;46036;-75
2023/02/05 08:36:08;;;;;;;;;1.33;1.33;;;;;21.05;44.51;104117.25;5075225;28;45365;-75
2023/02/05 08:38:33;;;;;;;;;1.33;1.33;;;;;21.08;44.54;104118.88;5077604;28;45331;-75
2023/02/05 08:41:03;;;;;;;;;4.67;2.00;;;;;21.09;43.81;104123.19;5079249;28;45343;-74
2023/02/05 08:43:28;;;;;;;;;1.00;1.00;;;;;21.04;44.04;104116.41;5079200;27;46334;-75
2023/02/05 08:45:53;;;;;;;;;1.33;1.00;;;;;21.09;44.00;104123.19;5079050;28;45315;-74
2023/02/05 08:48:19;;;;;;;;;1.00;1.00;;;;;21.03;43.98;104108.53;5079226;27;45427;-75
2023/02/05 08:50:45;;;;;;;;;1.33;1.33;;;;;21.09;44.34;104121.41;5078977;27;45419;-75
2023/02/05 08:53:10;;;;;;;;;3.33;2.00;;;;;21.00;44.36;104111.34;5079161;28;45522;-75
2023/02/05 08:55:36;;;;;;;;;1.33;1.33;;;;;21.09;44.23;104123.19;5079021;27;45512;-75
2023/02/05 08:58:01;;;;;;;;;3.33;1.00;;;;;20.76;44.40;104067.75;5079253;27;45345;-75
2023/02/05 09:00:27;;;;;;;;;2.00;1.67;;;;;21.09;44.05;104115.25;5079088;28;45348;-75
2023/02/05 09:02:52;;;;;;;;;1.33;1.33;;;;;21.01;44.53;104103.34;5078850;28;46892;-75
2023/02/05 09:05:18;;;;;;;;;2.33;1.67;;;;;20.88;44.07;104086.47;5078504;28;45432;-75
2023/02/05 09:07:43;;;;;;;;;1.00;1.00;;;;;21.09;44.44;104123.19;5079298;28;45387;-75
2023/02/05 09:10:11;;;;;;;;;2.00;2.00;;;;;21.10;44.39;104133.72;5060709;28;45490;-75
2023/02/05 09:12:36;;;;;;;;;1.00;1.00;;;;;21.05;43.75;104127.84;5078784;27;46197;-73
2023/02/05 09:15:01;;;;;;;;;1.67;1.00;;;;;20.96;44.34;104113.31;5078807;27;45375;-75
2023/02/05 09:17:27;;;;;;;;;2.00;1.00;;;;;21.09;44.10;104144.38;5079049;27;45309;-74
2023/02/05 09:19:52;;;;;;;;;1.33;1.33;;;;;21.01;44.31;104140.41;5060518;28;45436;-76
2023/02/05 09:22:17;;;;;;;;;1.67;1.00;;;;;21.09;43.86;104168.22;5060560;27;46066;-75
2023/02/05 09:24:43;;;;;;;;;1.67;1.00;;;;;21.04;44.11;104166.69;5078631;27;45375;-75
2023/02/05 09:27:12;;;;;;;;;1.33;1.00;;;;;21.01;44.19;104156.28;5078783;28;45316;-75
2023/02/05 09:29:38;;;;;;;;;2.00;2.00;;;;;21.04;43.87;104174.63;5078655;28;45285;-75
2023/02/05 09:32:03;;;;;;;;;1.00;1.00;;;;;21.05;44.14;104164.91;5078464;27;45387;-75
2023/02/05 09:34:31;;;;;;;;;0.00;0.00;;;;;21.09;43.92;104170.84;5078318;27;45352;-75
2023/02/05 09:36:56;;;;;;;;;1.33;1.33;;;;;21.08;43.73;104167.34;5060275;27;45352;-75
2023/02/05 09:39:21;;;;;;;;;1.00;1.00;;;;;20.98;43.94;104159.09;5078436;28;45348;-74
2023/02/05 09:41:47;;;;;;;;;1.00;1.00;;;;;21.09;43.69;104173.50;5078317;28;47220;-75
2023/02/05 09:44:33;;;;;;;;;2.00;1.00;;;;;21.09;43.98;104155.81;5078363;28;45335;-75
2023/02/05 09:47:15;;;;;;;;;1.00;1.00;;;;;20.99;43.94;104144.91;5078111;28;45348;-74
2023/02/05 09:49:49;;;;;;;;;1.00;1.00;;;;;21.03;44.22;104174.72;5077275;27;45368;-75
2023/02/05 09:52:32;;;;;;;;;1.00;1.00;;;;;21.11;43.94;104184.84;5078170;28;47191;-73
2023/02/05 09:55:06;;;;;;;;;2.33;1.00;;;;;21.10;43.90;104194.59;5078143;28;45309;-73
2023/02/05 09:57:34;;;;;;;;;2.00;2.00;;;;;21.12;44.23;104213.03;5078213;28;45306;-73
2023/02/05 10:00:00;;;;;;;;;1.33;1.33;;;;;21.12;44.23;104215.69;5078074;28;45492;-73
2023/02/05 10:02:49;;;;;;;;;0.67;0.67;;;;;21.12;44.07;104197.16;5077732;28;46356;-74
2023/02/05 10:05:16;;;;;;;;;2.00;2.00;;;;;21.13;44.28;104199.69;5077595;28;45411;-74
2023/02/05 10:08:02;;;;;;;;;0.00;0.00;;;;;21.13;44.24;104196.22;5059930;28;45416;-75
2023/02/05 10:10:48;;;;;;;;;1.00;0.67;;;;;21.13;43.94;104182.97;5077937;27;45372;-73
2023/02/05 10:13:35;;;;;;;;;0.67;0.67;;;;;21.08;44.36;104193.81;5077774;28;46286;-74
2023/02/05 10:16:21;;;;;;;;;1.00;1.00;;;;;21.16;44.22;104212.75;5077922;28;45379;-74
2023/02/05 10:19:13;;;;;;;;;1.00;1.00;;;;;21.17;44.48;104213.63;5077677;28;45344;-74
2023/02/05 10:22:09;;;;;;;;;1.67;1.00;;;;;21.28;44.10;104232.38;5077875;28;45450;-74
2023/02/05 10:24:49;;;;;;;;;1.00;1.00;;;;;21.34;44.39;104227.66;5077493;27;46486;-78
2023/02/05 10:27:18;;;;;;;;;2.33;1.00;;;;;21.36;43.83;104202.78;5077280;27;45408;-75
2023/02/05 10:30:02;;;;;;;;;2.00;2.00;;;;;21.37;44.15;104207.09;5077648;27;45464;-73
2023/02/05 10:32:59;;;;;;;;;2.33;1.00;;;;;21.40;44.22;104214.00;5075941;27;45541;-71
2023/02/05 10:35:31;;;;;;;;;3.00;3.00;;;;;;;;5076050;28;46993;-73
2023/02/05 10:37:56;;;;;;;;;1.33;1.33;;;;;21.45;44.35;104219.03;5077457;27;45344;-73
2023/02/05 10:40:30;;;;;;;;;2.67;2.00;;;;;21.46;44.81;104247.22;5077109;28;45758;-73
2023/02/05 10:43:03;;;;;;;;;2.00;2.00;;;;;21.43;44.47;104219.13;5077396;28;45361;-73
2023/02/05 10:45:30;;;;;;;;;1.67;1.67;;;;;21.46;43.97;104220.75;5076852;28;46135;-73
2023/02/05 10:48:24;;;;;;;;;2.00;2.00;;;;;21.49;43.44;104226.69;5076648;27;45442;-73
2023/02/05 10:51:03;;;;;;;;;3.00;3.00;;;;;21.50;43.90;104209.84;5074601;27;45388;-73
2023/02/05 10:53:29;;;;;;;;;0.67;0.67;;;;;21.37;38.58;104208.91;5074546;28;45299;-73
2023/02/05 10:55:57;;;;;;;;;1.00;1.00;;;;;21.26;40.53;104205.09;5076540;28;47159;-76
2023/02/05 10:58:35;;;;;;;;;0.67;0.67;;;;;21.23;41.27;104196.50;5076847;27;45291;-74
2023/02/05 11:01:01;;;;;;;;;1.00;1.00;;;;;21.25;42.26;104194.63;5077057;28;45363;-73
2023/02/05 11:03:27;;;;;;;;;2.00;0.33;;;;;21.24;42.03;104184.97;5076593;28;45533;-74
2023/02/05 11:05:53;;;;;;;;;1.67;1.00;;;;;21.26;42.25;104189.22;5076766;28;47244;-74
2023/02/05 11:08:45;;;;;;;;;5.00;0.33;;;;;21.30;42.34;104187.25;5076958;28;45362;-73
2023/02/05 11:11:38;;;;;;;;;1.00;1.00;;;;;21.32;41.92;104181.84;5074052;27;45319;-74
2023/02/05 11:14:06;;;;;;;;;1.00;1.00;;;;;21.33;42.38;104196.81;5056844;28;45502;-77
2023/02/05 11:16:38;;;;;;;;;3.00;1.00;;;;;21.32;42.16;104198.59;5076431;28;45491;-73
2023/02/05 11:19:03;;;;;;;;;2.33;2.00;;;;;21.27;42.41;104175.03;5076773;28;45295;-72
2023/02/05 11:21:49;;;;;;;;;2.00;1.00;;;;;21.37;42.19;104199.16;5076809;27;45346;-75
2023/02/05 11:24:41;;;;;;;;;1.00;1.00;;;;;21.39;42.17;104175.25;5076841;28;45448;-73
2023/02/05 11:27:18;;;;;;;;;1.00;1.00;;;;;21.40;42.23;104195.47;5073326;27;45355;-73
2023/02/05 11:29:43;;;;;;;;;2.00;1.00;;;;;21.31;42.06;104170.41;5076517;27;45374;-73
2023/02/05 11:32:19;;;;;;;;;3.00;2.00;;;;;21.39;42.09;104178.72;5076435;28;45363;-73
2023/02/05 11:34:45;;;;;;;;;3.00;1.00;;;;;;;;5076820;28;45492;-73
2023/02/05 11:37:16;;;;;;;;;3.00;1.00;;;;;21.44;42.23;104180.25;5076497;27;45645;-73
2023/02/05 11:39:43;;;;;;;;;3.00;1.33;;;;;;;;5076547;28;45276;-73
2023/02/05 11:42:23;;;;;;;;;2.33;1.00;;;;;21.42;42.30;104174.19;5076588;28;45311;-73